Haynesville, Virginia
Current Conditions -  °F | °C
As of 6:55 PM on Saturday 22 Nov 2014 (Local Time) from KXSA Reporting Station
Clear Clear  
Wind Chill: 37°   Ceiling: Unl
Heat Index: 40°   Visibility: 10mi
Dew Point: 12°   Wind: 5mph
Humidity: 31%   Direction: 180°S
Pressure: 30.35"   Gusts: NA
Location:  37.95°N, 76.66°W
Report Text: KXSA 222355Z AUTO 18004KT 10SM CLR 05/M11 A3035 RMK AO2 T00471113 10101 20042
Loading
Personal Weather Stations






























Interactive Weather Map New forecast layout! Learn more

10-Day Weather Forecast

Advertisements
Track Severe Weather on mobile